sensor_id;sensor_type;location;lat;lon;timestamp;P1;durP1;ratioP1;P2;durP2;ratioP2
17147;SDS011;8689;47.364;8.796;2023-08-06T00:02:08;9.43;;;5.60;;
17147;SDS011;8689;47.364;8.796;2023-08-06T00:04:36;6.60;;;5.57;;
17147;SDS011;8689;47.364;8.796;2023-08-06T00:07:04;5.60;;;5.10;;
17147;SDS011;8689;47.364;8.796;2023-08-06T00:09:31;6.40;;;5.80;;
17147;SDS011;8689;47.364;8.796;2023-08-06T00:11:59;7.33;;;5.83;;
17147;SDS011;8689;47.364;8.796;2023-08-06T00:14:26;7.70;;;5.77;;
17147;SDS011;8689;47.364;8.796;2023-08-06T00:16:55;10.80;;;6.23;;
17147;SDS011;8689;47.364;8.796;2023-08-06T00:19:23;6.77;;;6.17;;
17147;SDS011;8689;47.364;8.796;2023-08-06T00:21:50;5.37;;;4.87;;
17147;SDS011;8689;47.364;8.796;2023-08-06T00:24:17;5.47;;;4.97;;
17147;SDS011;8689;47.364;8.796;2023-08-06T00:26:45;4.80;;;4.40;;
17147;SDS011;8689;47.364;8.796;2023-08-06T00:29:12;8.10;;;4.50;;
17147;SDS011;8689;47.364;8.796;2023-08-06T00:31:39;5.33;;;4.83;;
17147;SDS011;8689;47.364;8.796;2023-08-06T00:34:08;5.40;;;4.90;;
17147;SDS011;8689;47.364;8.796;2023-08-06T00:36:35;4.63;;;4.23;;
17147;SDS011;8689;47.364;8.796;2023-08-06T00:39:02;5.10;;;4.57;;
17147;SDS011;8689;47.364;8.796;2023-08-06T00:41:29;5.07;;;4.67;;
17147;SDS011;8689;47.364;8.796;2023-08-06T00:43:57;5.23;;;4.63;;
17147;SDS011;8689;47.364;8.796;2023-08-06T00:46:24;4.83;;;4.37;;
17147;SDS011;8689;47.364;8.796;2023-08-06T00:48:51;5.60;;;5.00;;
17147;SDS011;8689;47.364;8.796;2023-08-06T00:51:20;8.20;;;4.83;;
17147;SDS011;8689;47.364;8.796;2023-08-06T00:53:48;5.13;;;4.73;;
17147;SDS011;8689;47.364;8.796;2023-08-06T00:56:16;6.20;;;4.63;;
17147;SDS011;8689;47.364;8.796;2023-08-06T00:58:44;5.60;;;5.10;;
17147;SDS011;8689;47.364;8.796;2023-08-06T01:01:11;5.33;;;4.83;;
17147;SDS011;8689;47.364;8.796;2023-08-06T01:03:38;7.30;;;4.30;;
17147;SDS011;8689;47.364;8.796;2023-08-06T01:06:06;7.63;;;5.23;;
17147;SDS011;8689;47.364;8.796;2023-08-06T01:08:38;4.87;;;4.37;;
17147;SDS011;8689;47.364;8.796;2023-08-06T01:11:18;4.80;;;4.37;;
17147;SDS011;8689;47.364;8.796;2023-08-06T01:13:54;5.00;;;4.50;;
17147;SDS011;8689;47.364;8.796;2023-08-06T01:16:29;4.90;;;4.50;;
17147;SDS011;8689;47.364;8.796;2023-08-06T01:18:59;4.67;;;4.27;;
17147;SDS011;8689;47.364;8.796;2023-08-06T01:21:28;4.80;;;4.23;;
17147;SDS011;8689;47.364;8.796;2023-08-06T01:23:55;4.47;;;3.50;;
17147;SDS011;8689;47.364;8.796;2023-08-06T01:26:24;3.63;;;3.27;;
17147;SDS011;8689;47.364;8.796;2023-08-06T01:28:59;4.17;;;3.80;;
17147;SDS011;8689;47.364;8.796;2023-08-06T01:31:31;4.23;;;3.77;;
17147;SDS011;8689;47.364;8.796;2023-08-06T01:34:01;3.50;;;3.20;;
17147;SDS011;8689;47.364;8.796;2023-08-06T01:36:33;4.10;;;3.00;;
17147;SDS011;8689;47.364;8.796;2023-08-06T01:39:01;6.03;;;4.03;;
17147;SDS011;8689;47.364;8.796;2023-08-06T01:41:28;3.47;;;3.10;;
17147;SDS011;8689;47.364;8.796;2023-08-06T01:43:55;3.47;;;3.17;;
17147;SDS011;8689;47.364;8.796;2023-08-06T01:46:22;4.67;;;3.57;;
17147;SDS011;8689;47.364;8.796;2023-08-06T01:48:50;5.90;;;3.73;;
17147;SDS011;8689;47.364;8.796;2023-08-06T01:51:17;4.27;;;3.80;;
17147;SDS011;8689;47.364;8.796;2023-08-06T01:53:46;3.53;;;3.23;;
17147;SDS011;8689;47.364;8.796;2023-08-06T01:56:13;3.30;;;3.00;;
17147;SDS011;8689;47.364;8.796;2023-08-06T01:58:40;3.90;;;3.50;;
17147;SDS011;8689;47.364;8.796;2023-08-06T02:01:08;4.93;;;3.37;;
17147;SDS011;8689;47.364;8.796;2023-08-06T02:03:35;3.50;;;3.20;;
17147;SDS011;8689;47.364;8.796;2023-08-06T02:06:03;2.70;;;2.50;;
17147;SDS011;8689;47.364;8.796;2023-08-06T02:08:30;3.07;;;2.67;;
17147;SDS011;8689;47.364;8.796;2023-08-06T02:10:59;2.97;;;2.77;;
17147;SDS011;8689;47.364;8.796;2023-08-06T02:13:27;3.20;;;2.90;;
17147;SDS011;8689;47.364;8.796;2023-08-06T02:15:54;3.77;;;2.73;;
17147;SDS011;8689;47.364;8.796;2023-08-06T02:18:22;3.83;;;2.40;;
17147;SDS011;8689;47.364;8.796;2023-08-06T02:20:54;3.27;;;2.97;;
17147;SDS011;8689;47.364;8.796;2023-08-06T02:23:22;3.77;;;3.40;;
17147;SDS011;8689;47.364;8.796;2023-08-06T02:25:56;3.87;;;2.63;;
17147;SDS011;8689;47.364;8.796;2023-08-06T02:28:25;3.33;;;2.97;;
17147;SDS011;8689;47.364;8.796;2023-08-06T02:30:53;3.00;;;2.80;;
17147;SDS011;8689;47.364;8.796;2023-08-06T02:33:20;4.80;;;2.70;;
17147;SDS011;8689;47.364;8.796;2023-08-06T02:35:48;2.80;;;2.60;;
17147;SDS011;8689;47.364;8.796;2023-08-06T02:38:15;2.70;;;2.50;;
17147;SDS011;8689;47.364;8.796;2023-08-06T02:40:43;3.20;;;2.57;;
17147;SDS011;8689;47.364;8.796;2023-08-06T02:43:12;3.83;;;2.30;;
17147;SDS011;8689;47.364;8.796;2023-08-06T02:45:40;2.80;;;2.57;;
17147;SDS011;8689;47.364;8.796;2023-08-06T02:48:07;2.50;;;2.30;;
17147;SDS011;8689;47.364;8.796;2023-08-06T02:50:38;3.20;;;2.90;;
17147;SDS011;8689;47.364;8.796;2023-08-06T02:53:06;3.10;;;2.83;;
17147;SDS011;8689;47.364;8.796;2023-08-06T02:55:33;3.57;;;3.00;;
17147;SDS011;8689;47.364;8.796;2023-08-06T02:58:01;3.07;;;2.80;;
17147;SDS011;8689;47.364;8.796;2023-08-06T03:00:30;3.47;;;2.83;;
17147;SDS011;8689;47.364;8.796;2023-08-06T03:02:57;3.20;;;3.00;;
17147;SDS011;8689;47.364;8.796;2023-08-06T03:05:25;2.10;;;1.90;;
17147;SDS011;8689;47.364;8.796;2023-08-06T03:07:53;3.50;;;2.70;;
17147;SDS011;8689;47.364;8.796;2023-08-06T03:10:20;3.50;;;2.70;;
17147;SDS011;8689;47.364;8.796;2023-08-06T03:12:48;2.53;;;2.33;;
17147;SDS011;8689;47.364;8.796;2023-08-06T03:15:15;3.23;;;2.93;;
17147;SDS011;8689;47.364;8.796;2023-08-06T03:17:44;3.67;;;2.20;;
17147;SDS011;8689;47.364;8.796;2023-08-06T03:20:11;2.83;;;2.57;;
17147;SDS011;8689;47.364;8.796;2023-08-06T03:22:39;2.93;;;2.60;;
17147;SDS011;8689;47.364;8.796;2023-08-06T03:25:07;1.73;;;1.63;;
17147;SDS011;8689;47.364;8.796;2023-08-06T03:27:34;2.70;;;2.50;;
17147;SDS011;8689;47.364;8.796;2023-08-06T03:30:02;5.40;;;2.50;;
17147;SDS011;8689;47.364;8.796;2023-08-06T03:32:30;2.40;;;2.20;;
17147;SDS011;8689;47.364;8.796;2023-08-06T03:34:59;2.77;;;2.10;;
17147;SDS011;8689;47.364;8.796;2023-08-06T03:37:26;3.33;;;3.00;;
17147;SDS011;8689;47.364;8.796;2023-08-06T03:39:53;3.10;;;2.60;;
17147;SDS011;8689;47.364;8.796;2023-08-06T03:42:20;2.17;;;2.07;;
17147;SDS011;8689;47.364;8.796;2023-08-06T03:44:48;3.53;;;3.00;;
17147;SDS011;8689;47.364;8.796;2023-08-06T03:47:15;2.47;;;2.27;;
17147;SDS011;8689;47.364;8.796;2023-08-06T03:49:43;3.43;;;2.40;;
17147;SDS011;8689;47.364;8.796;2023-08-06T03:52:11;3.53;;;2.33;;
17147;SDS011;8689;47.364;8.796;2023-08-06T03:54:39;2.70;;;2.50;;
17147;SDS011;8689;47.364;8.796;2023-08-06T03:57:08;2.00;;;1.90;;
17147;SDS011;8689;47.364;8.796;2023-08-06T03:59:36;2.00;;;1.90;;
17147;SDS011;8689;47.364;8.796;2023-08-06T04:02:04;2.70;;;2.27;;
17147;SDS011;8689;47.364;8.796;2023-08-06T04:04:32;2.97;;;2.47;;
17147;SDS011;8689;47.364;8.796;2023-08-06T04:06:59;2.80;;;2.60;;
17147;SDS011;8689;47.364;8.796;2023-08-06T04:09:28;2.80;;;2.60;;
17147;SDS011;8689;47.364;8.796;2023-08-06T04:11:56;2.30;;;2.10;;
17147;SDS011;8689;47.364;8.796;2023-08-06T04:14:23;2.47;;;2.17;;
17147;SDS011;8689;47.364;8.796;2023-08-06T04:16:53;3.73;;;2.43;;
17147;SDS011;8689;47.364;8.796;2023-08-06T04:19:21;2.80;;;2.60;;
17147;SDS011;8689;47.364;8.796;2023-08-06T04:21:47;2.70;;;2.50;;
17147;SDS011;8689;47.364;8.796;2023-08-06T04:24:14;3.03;;;2.50;;
17147;SDS011;8689;47.364;8.796;2023-08-06T04:26:43;2.63;;;2.20;;
17147;SDS011;8689;47.364;8.796;2023-08-06T04:29:11;2.50;;;2.30;;
17147;SDS011;8689;47.364;8.796;2023-08-06T04:31:38;2.73;;;2.50;;
17147;SDS011;8689;47.364;8.796;2023-08-06T04:34:05;2.20;;;2.00;;
17147;SDS011;8689;47.364;8.796;2023-08-06T04:36:34;4.63;;;2.40;;
17147;SDS011;8689;47.364;8.796;2023-08-06T04:39:01;2.57;;;2.37;;
17147;SDS011;8689;47.364;8.796;2023-08-06T04:41:29;4.13;;;2.47;;
17147;SDS011;8689;47.364;8.796;2023-08-06T04:43:58;2.57;;;2.33;;
17147;SDS011;8689;47.364;8.796;2023-08-06T04:46:25;2.83;;;2.33;;
17147;SDS011;8689;47.364;8.796;2023-08-06T04:48:54;7.13;;;1.93;;
17147;SDS011;8689;47.364;8.796;2023-08-06T04:51:24;10.67;;;2.53;;
17147;SDS011;8689;47.364;8.796;2023-08-06T04:53:54;4.37;;;2.47;;
17147;SDS011;8689;47.364;8.796;2023-08-06T04:56:26;2.17;;;1.97;;
17147;SDS011;8689;47.364;8.796;2023-08-06T04:59:00;2.40;;;2.20;;
17147;SDS011;8689;47.364;8.796;2023-08-06T05:01:27;4.20;;;2.40;;
17147;SDS011;8689;47.364;8.796;2023-08-06T05:03:55;2.17;;;1.97;;
17147;SDS011;8689;47.364;8.796;2023-08-06T05:06:22;2.00;;;1.90;;
17147;SDS011;8689;47.364;8.796;2023-08-06T05:08:49;1.80;;;1.70;;
17147;SDS011;8689;47.364;8.796;2023-08-06T05:11:16;2.37;;;2.17;;
17147;SDS011;8689;47.364;8.796;2023-08-06T05:13:44;2.97;;;2.60;;
17147;SDS011;8689;47.364;8.796;2023-08-06T05:16:15;1.70;;;1.60;;
17147;SDS011;8689;47.364;8.796;2023-08-06T05:18:46;3.67;;;1.60;;
17147;SDS011;8689;47.364;8.796;2023-08-06T05:21:16;1.90;;;1.80;;
17147;SDS011;8689;47.364;8.796;2023-08-06T05:23:44;2.30;;;2.10;;
17147;SDS011;8689;47.364;8.796;2023-08-06T05:26:22;3.33;;;2.27;;
17147;SDS011;8689;47.364;8.796;2023-08-06T05:28:49;3.33;;;2.30;;
17147;SDS011;8689;47.364;8.796;2023-08-06T05:31:17;2.93;;;2.00;;
17147;SDS011;8689;47.364;8.796;2023-08-06T05:33:45;4.57;;;2.30;;
17147;SDS011;8689;47.364;8.796;2023-08-06T05:36:12;3.13;;;1.80;;
17147;SDS011;8689;47.364;8.796;2023-08-06T05:38:39;3.50;;;2.17;;
17147;SDS011;8689;47.364;8.796;2023-08-06T05:41:06;2.77;;;1.80;;
17147;SDS011;8689;47.364;8.796;2023-08-06T05:43:34;2.30;;;2.10;;
17147;SDS011;8689;47.364;8.796;2023-08-06T05:46:02;2.80;;;1.90;;
17147;SDS011;8689;47.364;8.796;2023-08-06T05:48:31;2.53;;;2.33;;
17147;SDS011;8689;47.364;8.796;2023-08-06T05:50:58;2.23;;;2.10;;
17147;SDS011;8689;47.364;8.796;2023-08-06T05:53:26;3.43;;;1.93;;
17147;SDS011;8689;47.364;8.796;2023-08-06T05:55:53;4.67;;;3.03;;
17147;SDS011;8689;47.364;8.796;2023-08-06T05:58:20;2.67;;;2.23;;
17147;SDS011;8689;47.364;8.796;2023-08-06T06:00:49;4.30;;;2.10;;
17147;SDS011;8689;47.364;8.796;2023-08-06T06:03:16;2.30;;;1.87;;
17147;SDS011;8689;47.364;8.796;2023-08-06T06:05:45;2.90;;;2.10;;
17147;SDS011;8689;47.364;8.796;2023-08-06T06:08:12;3.90;;;2.23;;
17147;SDS011;8689;47.364;8.796;2023-08-06T06:10:40;2.23;;;2.03;;
17147;SDS011;8689;47.364;8.796;2023-08-06T06:13:08;2.10;;;2.00;;
17147;SDS011;8689;47.364;8.796;2023-08-06T06:15:35;2.17;;;1.87;;
17147;SDS011;8689;47.364;8.796;2023-08-06T06:18:03;2.37;;;2.17;;
17147;SDS011;8689;47.364;8.796;2023-08-06T06:20:32;7.47;;;4.13;;
17147;SDS011;8689;47.364;8.796;2023-08-06T06:23:01;2.03;;;1.90;;
17147;SDS011;8689;47.364;8.796;2023-08-06T06:25:28;2.97;;;2.10;;
17147;SDS011;8689;47.364;8.796;2023-08-06T06:27:56;1.50;;;1.43;;
17147;SDS011;8689;47.364;8.796;2023-08-06T06:30:24;1.40;;;1.40;;
17147;SDS011;8689;47.364;8.796;2023-08-06T06:32:51;1.80;;;1.70;;
17147;SDS011;8689;47.364;8.796;2023-08-06T06:35:18;3.27;;;1.90;;
17147;SDS011;8689;47.364;8.796;2023-08-06T06:37:46;1.53;;;1.30;;
17147;SDS011;8689;47.364;8.796;2023-08-06T06:40:16;2.20;;;1.73;;
17147;SDS011;8689;47.364;8.796;2023-08-06T06:42:43;3.63;;;1.90;;
17147;SDS011;8689;47.364;8.796;2023-08-06T06:45:11;2.00;;;1.80;;
17147;SDS011;8689;47.364;8.796;2023-08-06T06:47:38;1.40;;;1.30;;
17147;SDS011;8689;47.364;8.796;2023-08-06T06:50:07;6.27;;;1.90;;
17147;SDS011;8689;47.364;8.796;2023-08-06T06:52:35;2.07;;;1.83;;
17147;SDS011;8689;47.364;8.796;2023-08-06T06:55:03;3.37;;;1.70;;
17147;SDS011;8689;47.364;8.796;2023-08-06T06:57:33;1.93;;;1.70;;
17147;SDS011;8689;47.364;8.796;2023-08-06T07:00:00;3.77;;;1.70;;
17147;SDS011;8689;47.364;8.796;2023-08-06T07:02:27;1.40;;;1.30;;
17147;SDS011;8689;47.364;8.796;2023-08-06T07:04:55;2.03;;;1.87;;
17147;SDS011;8689;47.364;8.796;2023-08-06T07:07:22;10.00;;;2.97;;
17147;SDS011;8689;47.364;8.796;2023-08-06T07:09:49;3.80;;;2.13;;
17147;SDS011;8689;47.364;8.796;2023-08-06T07:12:16;2.37;;;1.63;;
17147;SDS011;8689;47.364;8.796;2023-08-06T07:14:45;1.60;;;1.50;;
17147;SDS011;8689;47.364;8.796;2023-08-06T07:17:13;1.87;;;1.77;;
17147;SDS011;8689;47.364;8.796;2023-08-06T07:19:40;1.70;;;1.60;;
17147;SDS011;8689;47.364;8.796;2023-08-06T07:22:07;1.93;;;1.57;;
17147;SDS011;8689;47.364;8.796;2023-08-06T07:24:34;1.77;;;1.67;;
17147;SDS011;8689;47.364;8.796;2023-08-06T07:27:01;2.20;;;1.60;;
17147;SDS011;8689;47.364;8.796;2023-08-06T07:29:29;2.30;;;1.63;;
17147;SDS011;8689;47.364;8.796;2023-08-06T07:31:58;3.13;;;1.63;;
17147;SDS011;8689;47.364;8.796;2023-08-06T07:34:26;2.17;;;1.60;;
17147;SDS011;8689;47.364;8.796;2023-08-06T07:36:53;2.20;;;2.10;;
17147;SDS011;8689;47.364;8.796;2023-08-06T07:39:20;3.10;;;1.80;;
17147;SDS011;8689;47.364;8.796;2023-08-06T07:41:47;1.93;;;1.60;;
17147;SDS011;8689;47.364;8.796;2023-08-06T07:44:15;1.73;;;1.40;;
17147;SDS011;8689;47.364;8.796;2023-08-06T07:46:42;2.10;;;1.90;;
17147;SDS011;8689;47.364;8.796;2023-08-06T07:49:10;2.27;;;2.10;;
17147;SDS011;8689;47.364;8.796;2023-08-06T07:51:37;2.10;;;1.90;;
17147;SDS011;8689;47.364;8.796;2023-08-06T07:54:05;1.60;;;1.50;;
17147;SDS011;8689;47.364;8.796;2023-08-06T07:56:32;2.80;;;2.00;;
17147;SDS011;8689;47.364;8.796;2023-08-06T07:59:01;2.60;;;1.90;;
17147;SDS011;8689;47.364;8.796;2023-08-06T08:01:28;2.60;;;1.93;;
17147;SDS011;8689;47.364;8.796;2023-08-06T08:03:55;1.97;;;1.60;;
17147;SDS011;8689;47.364;8.796;2023-08-06T08:06:24;9.00;;;3.00;;
17147;SDS011;8689;47.364;8.796;2023-08-06T08:08:52;1.40;;;1.40;;
17147;SDS011;8689;47.364;8.796;2023-08-06T08:11:19;2.63;;;1.80;;
17147;SDS011;8689;47.364;8.796;2023-08-06T08:13:47;1.63;;;1.53;;
17147;SDS011;8689;47.364;8.796;2023-08-06T08:16:14;2.20;;;2.00;;
17147;SDS011;8689;47.364;8.796;2023-08-06T08:18:41;1.63;;;1.53;;
17147;SDS011;8689;47.364;8.796;2023-08-06T08:21:09;2.47;;;1.90;;
17147;SDS011;8689;47.364;8.796;2023-08-06T08:23:38;4.37;;;1.80;;
17147;SDS011;8689;47.364;8.796;2023-08-06T08:26:07;6.47;;;1.80;;
17147;SDS011;8689;47.364;8.796;2023-08-06T08:28:34;2.63;;;1.83;;
17147;SDS011;8689;47.364;8.796;2023-08-06T08:31:02;1.83;;;1.73;;
17147;SDS011;8689;47.364;8.796;2023-08-06T08:33:29;1.73;;;1.60;;
17147;SDS011;8689;47.364;8.796;2023-08-06T08:35:56;4.37;;;1.90;;
17147;SDS011;8689;47.364;8.796;2023-08-06T08:38:24;1.70;;;1.60;;
17147;SDS011;8689;47.364;8.796;2023-08-06T08:40:53;2.00;;;1.90;;
17147;SDS011;8689;47.364;8.796;2023-08-06T08:43:21;3.63;;;2.63;;
17147;SDS011;8689;47.364;8.796;2023-08-06T08:45:49;1.90;;;1.80;;
17147;SDS011;8689;47.364;8.796;2023-08-06T08:48:17;1.70;;;1.70;;
17147;SDS011;8689;47.364;8.796;2023-08-06T08:50:45;3.53;;;1.43;;
17147;SDS011;8689;47.364;8.796;2023-08-06T08:53:15;1.80;;;1.70;;
17147;SDS011;8689;47.364;8.796;2023-08-06T08:55:43;2.07;;;1.80;;
17147;SDS011;8689;47.364;8.796;2023-08-06T08:58:15;1.60;;;1.50;;
17147;SDS011;8689;47.364;8.796;2023-08-06T09:00:42;1.70;;;1.60;;
17147;SDS011;8689;47.364;8.796;2023-08-06T09:03:12;2.27;;;1.93;;
17147;SDS011;8689;47.364;8.796;2023-08-06T09:05:40;2.07;;;1.97;;
17147;SDS011;8689;47.364;8.796;2023-08-06T09:08:11;2.10;;;1.97;;
17147;SDS011;8689;47.364;8.796;2023-08-06T09:10:40;1.83;;;1.73;;
17147;SDS011;8689;47.364;8.796;2023-08-06T09:13:09;1.80;;;1.70;;
17147;SDS011;8689;47.364;8.796;2023-08-06T09:15:39;2.17;;;2.00;;
17147;SDS011;8689;47.364;8.796;2023-08-06T09:18:09;1.97;;;1.77;;
17147;SDS011;8689;47.364;8.796;2023-08-06T09:20:37;1.90;;;1.80;;
17147;SDS011;8689;47.364;8.796;2023-08-06T09:23:09;2.90;;;2.37;;
17147;SDS011;8689;47.364;8.796;2023-08-06T09:25:38;3.00;;;1.97;;
17147;SDS011;8689;47.364;8.796;2023-08-06T09:28:06;2.93;;;2.00;;
17147;SDS011;8689;47.364;8.796;2023-08-06T09:30:33;4.63;;;2.33;;
17147;SDS011;8689;47.364;8.796;2023-08-06T09:33:04;2.20;;;2.00;;
17147;SDS011;8689;47.364;8.796;2023-08-06T09:35:36;6.53;;;2.10;;
17147;SDS011;8689;47.364;8.796;2023-08-06T09:38:06;26.53;;;12.83;;
17147;SDS011;8689;47.364;8.796;2023-08-06T09:40:35;18.67;;;9.57;;
17147;SDS011;8689;47.364;8.796;2023-08-06T09:43:03;15.83;;;9.77;;
17147;SDS011;8689;47.364;8.796;2023-08-06T09:45:32;9.53;;;5.83;;
17147;SDS011;8689;47.364;8.796;2023-08-06T09:48:01;2.20;;;2.03;;
17147;SDS011;8689;47.364;8.796;2023-08-06T09:50:32;2.10;;;2.00;;
17147;SDS011;8689;47.364;8.796;2023-08-06T09:53:02;2.07;;;1.83;;
17147;SDS011;8689;47.364;8.796;2023-08-06T09:55:30;3.43;;;3.13;;
17147;SDS011;8689;47.364;8.796;2023-08-06T09:58:07;2.17;;;2.07;;
17147;SDS011;8689;47.364;8.796;2023-08-06T10:00:36;3.63;;;2.70;;
17147;SDS011;8689;47.364;8.796;2023-08-06T10:03:05;2.10;;;1.90;;
17147;SDS011;8689;47.364;8.796;2023-08-06T10:05:34;2.83;;;2.63;;
17147;SDS011;8689;47.364;8.796;2023-08-06T10:08:03;1.90;;;1.80;;
17147;SDS011;8689;47.364;8.796;2023-08-06T10:10:33;1.97;;;1.87;;
17147;SDS011;8689;47.364;8.796;2023-08-06T10:13:01;2.07;;;1.97;;
17147;SDS011;8689;47.364;8.796;2023-08-06T10:15:31;1.80;;;1.70;;
17147;SDS011;8689;47.364;8.796;2023-08-06T10:17:59;1.80;;;1.70;;
17147;SDS011;8689;47.364;8.796;2023-08-06T10:20:34;1.47;;;1.47;;
17147;SDS011;8689;47.364;8.796;2023-08-06T10:23:02;1.63;;;1.43;;
17147;SDS011;8689;47.364;8.796;2023-08-06T10:25:32;1.50;;;1.50;;
17147;SDS011;8689;47.364;8.796;2023-08-06T10:28:01;1.30;;;1.30;;
17147;SDS011;8689;47.364;8.796;2023-08-06T10:30:35;1.50;;;1.50;;
17147;SDS011;8689;47.364;8.796;2023-08-06T10:33:08;1.93;;;1.83;;
17147;SDS011;8689;47.364;8.796;2023-08-06T10:35:41;2.60;;;1.53;;
17147;SDS011;8689;47.364;8.796;2023-08-06T10:38:11;1.83;;;1.70;;
17147;SDS011;8689;47.364;8.796;2023-08-06T10:40:40;1.40;;;1.40;;
17147;SDS011;8689;47.364;8.796;2023-08-06T10:43:08;2.20;;;1.57;;
17147;SDS011;8689;47.364;8.796;2023-08-06T10:45:52;2.03;;;1.93;;
17147;SDS011;8689;47.364;8.796;2023-08-06T10:48:28;1.90;;;1.80;;
17147;SDS011;8689;47.364;8.796;2023-08-06T10:50:59;1.57;;;1.57;;
17147;SDS011;8689;47.364;8.796;2023-08-06T11:03:05;1.63;;;1.60;;
17147;SDS011;8689;47.364;8.796;2023-08-06T11:05:33;1.70;;;1.60;;
17147;SDS011;8689;47.364;8.796;2023-08-06T11:08:03;1.40;;;1.37;;
17147;SDS011;8689;47.364;8.796;2023-08-06T11:13:36;1.80;;;1.70;;
17147;SDS011;8689;47.364;8.796;2023-08-06T11:16:20;1.57;;;1.57;;
17147;SDS011;8689;47.364;8.796;2023-08-06T11:19:02;1.90;;;1.80;;
17147;SDS011;8689;47.364;8.796;2023-08-06T12:20:03;1.40;;;1.40;;
17147;SDS011;8689;47.364;8.796;2023-08-06T12:22:32;1.60;;;1.60;;
17147;SDS011;8689;47.364;8.796;2023-08-06T12:25:01;1.70;;;1.60;;
17147;SDS011;8689;47.364;8.796;2023-08-06T12:27:31;1.60;;;1.60;;
17147;SDS011;8689;47.364;8.796;2023-08-06T12:29:59;1.40;;;1.30;;
17147;SDS011;8689;47.364;8.796;2023-08-06T12:32:26;1.40;;;1.40;;
17147;SDS011;8689;47.364;8.796;2023-08-06T12:34:53;1.43;;;1.43;;
17147;SDS011;8689;47.364;8.796;2023-08-06T12:44:23;1.60;;;1.50;;
17147;SDS011;8689;47.364;8.796;2023-08-06T12:46:51;1.50;;;1.50;;
17147;SDS011;8689;47.364;8.796;2023-08-06T12:49:20;3.60;;;1.73;;
17147;SDS011;8689;47.364;8.796;2023-08-06T12:51:52;1.67;;;1.57;;
17147;SDS011;8689;47.364;8.796;2023-08-06T12:54:21;1.50;;;1.50;;
17147;SDS011;8689;47.364;8.796;2023-08-06T12:56:51;1.63;;;1.53;;
17147;SDS011;8689;47.364;8.796;2023-08-06T12:59:21;1.37;;;1.37;;
17147;SDS011;8689;47.364;8.796;2023-08-06T13:01:55;1.80;;;1.70;;
17147;SDS011;8689;47.364;8.796;2023-08-06T13:04:26;1.53;;;1.50;;
17147;SDS011;8689;47.364;8.796;2023-08-06T13:06:56;2.30;;;2.20;;
17147;SDS011;8689;47.364;8.796;2023-08-06T13:09:24;1.40;;;1.40;;
17147;SDS011;8689;47.364;8.796;2023-08-06T13:11:54;1.83;;;1.73;;
17147;SDS011;8689;47.364;8.796;2023-08-06T13:14:25;1.60;;;1.60;;
17147;SDS011;8689;47.364;8.796;2023-08-06T13:17:20;1.30;;;1.30;;
17147;SDS011;8689;47.364;8.796;2023-08-06T13:19:47;2.17;;;2.00;;
17147;SDS011;8689;47.364;8.796;2023-08-06T13:22:14;2.07;;;1.97;;
17147;SDS011;8689;47.364;8.796;2023-08-06T13:24:41;2.10;;;2.03;;
17147;SDS011;8689;47.364;8.796;2023-08-06T13:27:11;2.00;;;1.90;;
17147;SDS011;8689;47.364;8.796;2023-08-06T13:29:38;1.63;;;1.60;;
17147;SDS011;8689;47.364;8.796;2023-08-06T13:32:06;1.70;;;1.60;;
17147;SDS011;8689;47.364;8.796;2023-08-06T13:34:33;1.40;;;1.40;;
17147;SDS011;8689;47.364;8.796;2023-08-06T13:36:59;1.47;;;1.37;;
17147;SDS011;8689;47.364;8.796;2023-08-06T13:39:27;1.50;;;1.40;;
17147;SDS011;8689;47.364;8.796;2023-08-06T13:41:54;1.97;;;1.60;;
17147;SDS011;8689;47.364;8.796;2023-08-06T13:44:23;1.63;;;1.50;;
17147;SDS011;8689;47.364;8.796;2023-08-06T13:46:49;1.43;;;1.30;;
17147;SDS011;8689;47.364;8.796;2023-08-06T13:49:17;1.47;;;1.37;;
17147;SDS011;8689;47.364;8.796;2023-08-06T13:51:44;1.40;;;1.30;;
17147;SDS011;8689;47.364;8.796;2023-08-06T13:54:12;2.10;;;1.83;;
17147;SDS011;8689;47.364;8.796;2023-08-06T13:56:47;1.60;;;1.60;;
17147;SDS011;8689;47.364;8.796;2023-08-06T13:59:47;1.80;;;1.67;;
17147;SDS011;8689;47.364;8.796;2023-08-06T14:07:52;1.80;;;1.70;;
17147;SDS011;8689;47.364;8.796;2023-08-06T14:30:06;1.90;;;1.80;;
17147;SDS011;8689;47.364;8.796;2023-08-06T14:32:24;2.07;;;1.83;;
17147;SDS011;8689;47.364;8.796;2023-08-06T14:34:52;1.87;;;1.77;;
17147;SDS011;8689;47.364;8.796;2023-08-06T14:37:25;1.60;;;1.50;;
17147;SDS011;8689;47.364;8.796;2023-08-06T14:40:10;2.40;;;2.20;;
17147;SDS011;8689;47.364;8.796;2023-08-06T14:42:47;3.70;;;2.07;;
17147;SDS011;8689;47.364;8.796;2023-08-06T14:45:30;1.53;;;1.53;;
17147;SDS011;8689;47.364;8.796;2023-08-06T14:47:57;1.67;;;1.57;;
17147;SDS011;8689;47.364;8.796;2023-08-06T14:50:27;2.00;;;1.50;;
17147;SDS011;8689;47.364;8.796;2023-08-06T14:52:54;2.50;;;1.60;;
17147;SDS011;8689;47.364;8.796;2023-08-06T14:55:27;1.50;;;1.40;;
17147;SDS011;8689;47.364;8.796;2023-08-06T14:58:12;1.27;;;1.23;;
17147;SDS011;8689;47.364;8.796;2023-08-06T15:00:40;1.40;;;1.40;;
17147;SDS011;8689;47.364;8.796;2023-08-06T15:03:07;2.00;;;1.90;;
17147;SDS011;8689;47.364;8.796;2023-08-06T15:05:35;1.67;;;1.57;;
17147;SDS011;8689;47.364;8.796;2023-08-06T15:08:05;2.50;;;1.77;;
17147;SDS011;8689;47.364;8.796;2023-08-06T15:10:34;2.17;;;1.97;;
17147;SDS011;8689;47.364;8.796;2023-08-06T15:13:07;3.37;;;2.07;;
17147;SDS011;8689;47.364;8.796;2023-08-06T15:15:34;1.67;;;1.57;;
17147;SDS011;8689;47.364;8.796;2023-08-06T15:18:06;3.07;;;1.70;;
17147;SDS011;8689;47.364;8.796;2023-08-06T15:20:34;3.40;;;2.23;;
17147;SDS011;8689;47.364;8.796;2023-08-06T15:23:01;2.00;;;1.90;;
17147;SDS011;8689;47.364;8.796;2023-08-06T15:25:29;1.63;;;1.57;;
17147;SDS011;8689;47.364;8.796;2023-08-06T15:28:08;2.93;;;2.00;;
17147;SDS011;8689;47.364;8.796;2023-08-06T15:30:35;1.80;;;1.70;;
17147;SDS011;8689;47.364;8.796;2023-08-06T15:33:02;1.90;;;1.80;;
17147;SDS011;8689;47.364;8.796;2023-08-06T15:35:29;2.07;;;1.97;;
17147;SDS011;8689;47.364;8.796;2023-08-06T15:37:57;1.60;;;1.47;;
17147;SDS011;8689;47.364;8.796;2023-08-06T15:40:24;1.77;;;1.67;;
17147;SDS011;8689;47.364;8.796;2023-08-06T15:43:00;2.17;;;1.70;;
17147;SDS011;8689;47.364;8.796;2023-08-06T15:45:51;2.50;;;1.67;;
17147;SDS011;8689;47.364;8.796;2023-08-06T15:48:18;1.73;;;1.63;;
17147;SDS011;8689;47.364;8.796;2023-08-06T15:50:46;2.10;;;1.90;;
17147;SDS011;8689;47.364;8.796;2023-08-06T15:53:14;2.10;;;1.90;;
17147;SDS011;8689;47.364;8.796;2023-08-06T15:55:47;2.10;;;2.00;;
17147;SDS011;8689;47.364;8.796;2023-08-06T15:58:15;2.50;;;2.30;;
17147;SDS011;8689;47.364;8.796;2023-08-06T16:00:43;2.07;;;1.87;;
17147;SDS011;8689;47.364;8.796;2023-08-06T16:03:12;2.20;;;2.10;;
17147;SDS011;8689;47.364;8.796;2023-08-06T16:05:42;2.20;;;2.00;;
17147;SDS011;8689;47.364;8.796;2023-08-06T16:08:10;1.77;;;1.60;;
17147;SDS011;8689;47.364;8.796;2023-08-06T16:10:37;1.90;;;1.57;;
17147;SDS011;8689;47.364;8.796;2023-08-06T16:13:09;2.40;;;2.23;;
17147;SDS011;8689;47.364;8.796;2023-08-06T16:15:39;6.67;;;2.50;;
17147;SDS011;8689;47.364;8.796;2023-08-06T16:18:14;2.40;;;2.20;;
17147;SDS011;8689;47.364;8.796;2023-08-06T16:20:44;2.30;;;2.20;;
17147;SDS011;8689;47.364;8.796;2023-08-06T16:23:11;1.83;;;1.73;;
17147;SDS011;8689;47.364;8.796;2023-08-06T16:25:39;1.93;;;1.80;;
17147;SDS011;8689;47.364;8.796;2023-08-06T16:28:19;2.40;;;2.20;;
17147;SDS011;8689;47.364;8.796;2023-08-06T16:31:00;2.30;;;2.20;;
17147;SDS011;8689;47.364;8.796;2023-08-06T16:33:37;3.10;;;1.90;;
17147;SDS011;8689;47.364;8.796;2023-08-06T16:36:15;2.87;;;2.50;;
17147;SDS011;8689;47.364;8.796;2023-08-06T16:38:43;2.23;;;2.10;;
17147;SDS011;8689;47.364;8.796;2023-08-06T16:41:11;2.90;;;2.10;;
17147;SDS011;8689;47.364;8.796;2023-08-06T16:46:21;2.10;;;2.00;;
17147;SDS011;8689;47.364;8.796;2023-08-06T16:48:51;4.00;;;2.57;;
17147;SDS011;8689;47.364;8.796;2023-08-06T16:51:20;2.13;;;2.00;;
17147;SDS011;8689;47.364;8.796;2023-08-06T16:53:50;3.80;;;2.57;;
17147;SDS011;8689;47.364;8.796;2023-08-06T16:56:19;3.57;;;1.73;;
17147;SDS011;8689;47.364;8.796;2023-08-06T16:58:47;2.17;;;1.63;;